Time;durP1;ratioP1;P1;durP2;ratioP2;P2;SDS_P1;SDS_P2;PMS_P1;PMS_P2;Temp;Humidity;BMP_temperature;BMP_pressure;BME280_temperature;BME280_humidity;BME280_pressure;Samples;Min_cycle;Max_cycle;Signal;HPM_P1;HPM_P2
2022/11/29 00:01:42;;;;;;;384.40;29.52;;;8.00;99.90;;;;;;4951554;28;20483;-86
2022/11/29 00:04:08;;;;;;;414.77;33.03;;;8.00;99.90;;;;;;4995417;28;20049;-86
2022/11/29 00:06:34;;;;;;;194.13;18.30;;;8.00;99.90;;;;;;4972455;28;20047;-86
2022/11/29 00:09:05;;;;;;;397.42;30.88;;;8.00;99.90;;;;;;4974912;28;20093;-86
2022/11/29 00:14:18;;;;;;;187.05;18.83;;;8.10;99.90;;;;;;4987044;28;20462;-87
2022/11/29 00:16:48;;;;;;;257.65;22.95;;;8.00;99.90;;;;;;4969336;28;20035;-87
2022/11/29 00:19:15;;;;;;;189.45;20.33;;;8.00;99.90;;;;;;4967853;28;20074;-86
2022/11/29 00:21:40;;;;;;;203.00;21.02;;;8.00;99.90;;;;;;4959277;28;20141;-87
2022/11/29 00:24:06;;;;;;;215.00;19.70;;;8.00;99.90;;;;;;4965395;28;20507;-87
2022/11/29 00:26:32;;;;;;;215.48;21.05;;;8.00;99.90;;;;;;4972869;28;20038;-86
2022/11/29 00:28:58;;;;;;;237.93;21.15;;;8.00;99.90;;;;;;4945576;28;20041;-86
2022/11/29 00:31:26;;;;;;;126.03;16.77;;;8.00;99.90;;;;;;4969185;28;20074;-86
2022/11/29 00:33:52;;;;;;;134.02;16.20;;;8.20;99.90;;;;;;4985063;28;20159;-87
2022/11/29 00:36:18;;;;;;;153.77;18.98;;;8.00;99.90;;;;;;4970449;28;20142;-86
2022/11/29 00:38:45;;;;;;;242.98;19.85;;;8.00;99.90;;;;;;4994812;28;20403;-86
2022/11/29 00:41:11;;;;;;;240.10;22.25;;;7.90;99.90;;;;;;4977083;28;20038;-86
2022/11/29 00:43:37;;;;;;;167.40;18.55;;;8.00;99.90;;;;;;4978374;28;20038;-86
2022/11/29 00:46:04;;;;;;;323.38;26.92;;;7.90;99.90;;;;;;4977607;28;20034;-86
2022/11/29 00:48:29;;;;;;;188.68;21.05;;;7.90;99.90;;;;;;4965366;28;20050;-87
2022/11/29 00:50:55;;;;;;;170.77;19.50;;;8.40;99.90;;;;;;4988290;28;20038;-86
2022/11/29 00:53:21;;;;;;;159.67;16.87;;;8.10;99.90;;;;;;4984382;28;20042;-85
2022/11/29 00:55:47;;;;;;;197.73;18.17;;;7.90;99.90;;;;;;4981655;28;20286;-86
2022/11/29 00:58:13;;;;;;;300.65;24.65;;;8.60;99.90;;;;;;4972095;28;20042;-86
2022/11/29 01:00:39;;;;;;;257.45;21.95;;;7.90;99.90;;;;;;4959300;28;20491;-86
2022/11/29 01:03:05;;;;;;;299.17;25.00;;;8.30;99.90;;;;;;4954381;28;20041;-86
2022/11/29 01:05:31;;;;;;;354.93;26.17;;;7.90;99.90;;;;;;4944096;28;20058;-86
2022/11/29 01:07:57;;;;;;;191.65;19.55;;;8.10;99.90;;;;;;4970540;28;20050;-86
2022/11/29 01:10:23;;;;;;;138.30;18.88;;;7.80;99.90;;;;;;4962671;28;20145;-86
2022/11/29 01:12:49;;;;;;;143.85;17.02;;;7.80;99.90;;;;;;4967233;28;20041;-85
2022/11/29 01:15:15;;;;;;;125.25;16.88;;;8.20;99.90;;;;;;4988510;28;20395;-87
2022/11/29 01:17:41;;;;;;;180.95;20.45;;;7.90;99.90;;;;;;4967975;28;20121;-86
2022/11/29 01:20:09;;;;;;;165.32;19.75;;;8.20;99.90;;;;;;4954812;28;20490;-86
2022/11/29 01:22:36;;;;;;;133.00;18.58;;;7.90;99.90;;;;;;4993084;28;20132;-87
2022/11/29 01:25:02;;;;;;;177.20;19.92;;;7.90;99.90;;;;;;4970053;28;20034;-86
2022/11/29 01:27:28;;;;;;;;;;;8.00;99.90;;;;;;4952118;28;20047;-85
2022/11/29 01:29:53;;;;;;;121.32;17.95;;;7.90;99.90;;;;;;4976861;28;19922;-87
2022/11/29 01:32:19;;;;;;;184.82;20.77;;;7.90;99.90;;;;;;4976392;28;20038;-87
2022/11/29 01:34:45;;;;;;;83.77;15.60;;;7.90;99.90;;;;;;4993029;28;20393;-87
2022/11/29 01:37:10;;;;;;;116.50;17.17;;;8.90;99.90;;;;;;4982469;28;20302;-78
2022/11/29 01:39:36;;;;;;;158.13;19.43;;;8.00;99.90;;;;;;4965522;28;20046;-78
2022/11/29 01:42:02;;;;;;;79.00;15.35;;;7.80;99.90;;;;;;4959092;28;20293;-77
2022/11/29 01:44:28;;;;;;;111.18;16.08;;;7.80;99.90;;;;;;4969994;28;20061;-77
2022/11/29 01:46:54;;;;;;;125.70;16.48;;;7.80;99.90;;;;;;4988944;28;20100;-78
2022/11/29 01:49:26;;;;;;;;;;;7.80;99.90;;;;;;4967994;28;20042;-78
2022/11/29 01:52:04;;;;;;;102.60;15.88;;;7.80;99.90;;;;;;4970419;28;19934;-78
2022/11/29 01:54:33;;;;;;;105.55;15.82;;;7.80;99.90;;;;;;4983872;28;20048;-78
2022/11/29 01:57:02;;;;;;;145.90;18.58;;;7.80;99.90;;;;;;4982060;28;20078;-78
2022/11/29 01:59:29;;;;;;;141.60;18.25;;;7.80;99.90;;;;;;4967655;28;20072;-78
2022/11/29 02:02:08;;;;;;;151.57;19.08;;;7.80;99.90;;;;;;4967980;28;20143;-79
2022/11/29 02:04:36;;;;;;;123.13;17.98;;;7.80;99.90;;;;;;4967099;28;21070;-78
2022/11/29 02:07:02;;;;;;;132.50;19.33;;;7.80;99.90;;;;;;4970291;28;20038;-78
2022/11/29 02:09:28;;;;;;;98.97;16.08;;;7.80;99.90;;;;;;4985932;28;20046;-78
2022/11/29 02:12:12;;;;;;;97.15;16.73;;;7.80;99.90;;;;;;4970256;28;20054;-79
2022/11/29 02:15:16;;;;;;;121.38;17.27;;;7.80;99.90;;;;;;5007267;28;20166;-78
2022/11/29 02:17:51;;;;;;;158.77;19.92;;;7.80;99.90;;;;;;4941889;29;20122;-78
2022/11/29 02:20:28;;;;;;;139.50;19.02;;;7.80;99.90;;;;;;4961411;28;20042;-78
2022/11/29 02:23:22;;;;;;;179.65;21.30;;;7.70;99.90;;;;;;4974479;28;20034;-78
2022/11/29 02:26:06;;;;;;;207.85;24.25;;;7.70;99.90;;;;;;4987098;28;20093;-78
2022/11/29 02:29:02;;;;;;;154.43;20.15;;;7.70;99.90;;;;;;4979815;28;20035;-78
2022/11/29 02:31:53;;;;;;;111.25;19.00;;;7.70;99.90;;;;;;4967865;28;20042;-79
2022/11/29 02:34:58;;;;;;;256.65;23.27;;;7.70;99.90;;;;;;4980824;28;20491;-79
2022/11/29 02:37:52;;;;;;;131.23;19.33;;;7.70;99.90;;;;;;4978743;28;20042;-79
2022/11/29 02:40:36;;;;;;;112.43;18.27;;;7.70;99.90;;;;;;4959864;28;20066;-76
2022/11/29 02:43:28;;;;;;;81.57;15.30;;;7.70;99.90;;;;;;4985134;28;20124;-77
2022/11/29 02:45:57;;;;;;;114.93;18.23;;;7.60;99.90;;;;;;4979672;28;20085;-77
2022/11/29 02:48:35;;;;;;;103.65;17.95;;;7.60;99.90;;;;;;4973726;28;20038;-77
2022/11/29 02:51:07;;;;;;;63.13;15.93;;;7.70;99.90;;;;;;4974011;28;20042;-78
2022/11/29 02:53:40;;;;;;;71.70;15.88;;;7.60;99.90;;;;;;4964966;28;20044;-78
2022/11/29 02:56:28;;;;;;;82.20;16.92;;;7.60;99.90;;;;;;4969325;28;20101;-78
2022/11/29 02:59:26;;;;;;;60.17;14.77;;;7.60;99.90;;;;;;4966785;28;20467;-78
2022/11/29 03:02:03;;;;;;;92.40;16.25;;;7.60;99.90;;;;;;4959727;28;20061;-78
2022/11/29 03:05:08;;;;;;;105.93;17.45;;;7.50;99.90;;;;;;4980671;28;20042;-78
2022/11/29 03:08:18;;;;;;;112.80;18.38;;;7.50;99.90;;;;;;4957668;28;20379;-78
2022/11/29 03:11:01;;;;;;;75.20;16.50;;;7.50;99.90;;;;;;4984732;28;20394;-78
2022/11/29 03:13:51;;;;;;;100.10;16.75;;;7.50;99.90;;;;;;4980174;28;20435;-78
2022/11/29 03:16:35;;;;;;;80.90;16.88;;;7.50;99.90;;;;;;4936848;28;20141;-79
2022/11/29 03:19:14;;;;;;;173.40;21.73;;;7.50;99.90;;;;;;4974188;28;20035;-78
2022/11/29 03:21:53;;;;;;;133.52;19.10;;;7.60;99.90;;;;;;4980959;28;20145;-78
2022/11/29 03:24:35;;;;;;;158.45;20.15;;;7.50;99.90;;;;;;4964757;28;20038;-79
2022/11/29 03:27:08;;;;;;;190.25;22.13;;;7.50;99.90;;;;;;4980450;28;20391;-79
2022/11/29 03:29:34;;;;;;;120.72;20.80;;;7.40;99.90;;;;;;4961605;28;20046;-78
2022/11/29 03:32:12;;;;;;;99.30;17.77;;;7.50;99.90;;;;;;4982654;28;20419;-78
2022/11/29 03:34:57;;;;;;;113.55;18.80;;;7.50;99.90;;;;;;4984445;28;20383;-78
2022/11/29 03:37:47;;;;;;;112.75;18.92;;;7.50;99.90;;;;;;4968622;28;20062;-77
2022/11/29 03:40:26;;;;;;;150.48;19.35;;;7.50;99.90;;;;;;4964978;28;20130;-77
2022/11/29 03:43:15;;;;;;;116.05;20.00;;;7.40;99.90;;;;;;4983269;28;20030;-77
2022/11/29 03:45:48;;;;;;;114.43;19.25;;;7.40;99.90;;;;;;4981192;28;20061;-77
2022/11/29 03:48:15;;;;;;;108.82;17.80;;;7.40;99.90;;;;;;4964236;28;20045;-78
2022/11/29 03:50:52;;;;;;;145.57;21.08;;;7.70;99.90;;;;;;4989088;28;20046;-78
2022/11/29 03:53:42;;;;;;;77.13;16.05;;;7.90;99.90;;;;;;4985562;28;20505;-77
2022/11/29 03:56:35;;;;;;;66.50;15.50;;;7.40;99.90;;;;;;4985350;28;20050;-77
2022/11/29 03:59:12;;;;;;;101.03;18.88;;;7.40;99.90;;;;;;4970723;28;20031;-77
2022/11/29 04:02:04;;;;;;;136.00;19.92;;;7.40;99.90;;;;;;4976598;28;20070;-79
2022/11/29 04:04:54;;;;;;;85.30;16.83;;;7.40;99.90;;;;;;4965902;28;20063;-78
2022/11/29 04:07:23;;;;;;;127.18;18.13;;;7.40;99.90;;;;;;4976767;28;20050;-78
2022/11/29 04:10:02;;;;;;;159.23;21.08;;;7.40;99.90;;;;;;4988229;28;20042;-78
2022/11/29 04:12:56;;;;;;;105.20;18.23;;;7.40;99.90;;;;;;4967694;28;20463;-79
2022/11/29 04:15:37;;;;;;;134.15;18.52;;;7.30;99.90;;;;;;4964645;28;20074;-79
2022/11/29 04:18:23;;;;;;;72.10;15.15;;;7.30;99.90;;;;;;4988879;28;20506;-78
2022/11/29 04:21:13;;;;;;;73.07;16.25;;;7.20;99.90;;;;;;4966730;28;20568;-79
2022/11/29 04:23:57;;;;;;;87.72;17.77;;;7.30;99.90;;;;;;4978621;28;20043;-79
2022/11/29 04:26:30;;;;;;;86.20;16.38;;;7.30;99.90;;;;;;4999700;28;20056;-79
2022/11/29 04:29:05;;;;;;;132.73;18.27;;;7.20;99.90;;;;;;4966836;28;20034;-79
2022/11/29 04:31:37;;;;;;;140.73;20.20;;;7.30;99.90;;;;;;4975924;28;20042;-77
2022/11/29 04:34:27;;;;;;;61.95;13.10;;;7.20;99.90;;;;;;4967823;28;20737;-78
2022/11/29 04:37:19;;;;;;;57.88;14.45;;;7.20;99.90;;;;;;4982287;28;20494;-79
2022/11/29 04:40:12;;;;;;;64.60;15.05;;;7.20;99.90;;;;;;4981018;28;20048;-79
2022/11/29 04:43:03;;;;;;;64.50;14.60;;;7.20;99.90;;;;;;4971374;28;20491;-79
2022/11/29 04:45:49;;;;;;;76.88;14.55;;;7.10;99.90;;;;;;4967935;28;20030;-77
2022/11/29 04:48:49;;;;;;;110.18;17.95;;;7.20;99.90;;;;;;4985263;28;20463;-79
2022/11/29 04:51:27;;;;;;;90.72;16.27;;;7.20;99.90;;;;;;4982339;28;20069;-78
2022/11/29 04:54:13;;;;;;;65.05;14.55;;;7.10;99.90;;;;;;4976148;28;20184;-79
2022/11/29 04:56:44;;;;;;;72.78;13.05;;;7.10;99.90;;;;;;4962579;28;20042;-78
2022/11/29 05:00:05;;;;;;;91.10;14.93;;;7.10;99.90;;;;;;4971017;28;20035;-79
2022/11/29 05:02:55;;;;;;;112.43;16.02;;;7.10;99.90;;;;;;4974296;28;20046;-77
2022/11/29 05:05:27;;;;;;;111.50;16.20;;;7.10;99.90;;;;;;4984085;28;20045;-78
2022/11/29 05:08:00;;;;;;;111.45;16.23;;;7.10;99.90;;;;;;4974198;28;20089;-79
2022/11/29 05:10:40;;;;;;;79.05;13.90;;;7.00;99.90;;;;;;4989567;28;20039;-78
2022/11/29 05:13:22;;;;;;;66.80;14.32;;;7.00;99.90;;;;;;4968371;28;20090;-79
2022/11/29 05:16:17;;;;;;;100.07;17.33;;;7.00;99.90;;;;;;4985770;28;20043;-82
2022/11/29 05:19:03;;;;;;;99.82;15.82;;;7.00;99.90;;;;;;4989679;28;20403;-82
2022/11/29 05:21:48;;;;;;;73.47;12.70;;;7.00;99.90;;;;;;4971340;28;20041;-83
2022/11/29 05:24:44;;;;;;;96.82;14.98;;;6.90;99.90;;;;;;4971550;28;20282;-83
2022/11/29 05:27:23;;;;;;;68.90;13.02;;;6.90;99.90;;;;;;4987565;28;20115;-82
2022/11/29 05:30:11;;;;;;;64.20;12.80;;;6.90;99.90;;;;;;4966344;28;20050;-82
2022/11/29 05:32:51;;;;;;;136.20;17.65;;;6.90;99.90;;;;;;4965458;28;20134;-84
2022/11/29 05:35:38;;;;;;;91.30;14.10;;;6.80;99.90;;;;;;4966846;28;20163;-83
2022/11/29 05:38:27;;;;;;;85.10;15.43;;;6.80;99.90;;;;;;4969844;28;20045;-83
2022/11/29 05:41:02;;;;;;;76.57;14.40;;;6.90;99.90;;;;;;4992047;28;20043;-84
2022/11/29 05:43:41;;;;;;;59.50;11.80;;;6.80;99.90;;;;;;4969512;28;20039;-84
2022/11/29 05:46:17;;;;;;;74.60;14.25;;;6.90;99.90;;;;;;4982944;28;20045;-83
2022/11/29 05:49:18;;;;;;;83.57;15.25;;;6.90;99.90;;;;;;4969271;28;20490;-83
2022/11/29 05:51:57;;;;;;;57.15;11.23;;;6.80;99.90;;;;;;4909487;28;20392;-82
2022/11/29 05:54:31;;;;;;;45.42;11.00;;;6.80;99.90;;;;;;4976013;28;20030;-83
2022/11/29 05:57:27;;;;;;;57.47;13.18;;;6.80;99.90;;;;;;4981723;28;20125;-83
2022/11/29 05:59:54;;;;;;;43.53;11.95;;;6.80;99.90;;;;;;4975768;28;20037;-85
2022/11/29 06:02:26;;;;;;;72.45;14.18;;;6.80;99.90;;;;;;4984395;28;20498;-83
2022/11/29 06:05:19;;;;;;;59.28;11.88;;;6.80;99.90;;;;;;4978073;28;20049;-83
2022/11/29 06:08:05;;;;;;;71.22;12.70;;;6.80;99.90;;;;;;4982563;28;20038;-82
2022/11/29 06:10:36;;;;;;;47.58;9.57;;;6.80;99.90;;;;;;4956556;28;20371;-81
2022/11/29 06:13:48;;;;;;;48.67;11.05;;;6.80;99.90;;;;;;4968128;28;20560;-82
2022/11/29 06:16:22;;;;;;;55.58;11.02;;;6.70;99.90;;;;;;4934358;28;20058;-82
2022/11/29 06:19:10;;;;;;;53.42;11.55;;;6.70;99.90;;;;;;4961556;28;20046;-82
2022/11/29 06:21:44;;;;;;;41.85;10.40;;;6.70;99.90;;;;;;4960313;28;20040;-82
2022/11/29 06:24:51;;;;;;;58.05;12.30;;;6.70;99.90;;;;;;4980308;28;20379;-81
2022/11/29 06:27:25;;;;;;;51.72;11.55;;;6.60;99.90;;;;;;4941620;29;20069;-82
2022/11/29 06:30:00;;;;;;;59.83;13.55;;;6.70;99.90;;;;;;4926052;29;20130;-82
2022/11/29 06:32:25;;;;;;;49.90;11.75;;;6.70;99.90;;;;;;4944009;28;20046;-82
2022/11/29 06:35:02;;;;;;;42.17;11.17;;;6.70;99.90;;;;;;4968906;28;20081;-82
2022/11/29 06:37:39;;;;;;;36.42;10.20;;;6.60;99.90;;;;;;4974573;28;20093;-82
2022/11/29 06:40:11;;;;;;;30.92;10.20;;;6.70;99.90;;;;;;4987226;28;20058;-82
2022/11/29 06:42:37;;;;;;;37.75;10.65;;;6.70;99.90;;;;;;4966541;28;20097;-82
2022/11/29 06:45:03;;;;;;;28.08;10.52;;;6.70;99.90;;;;;;4959100;28;20444;-82
2022/11/29 06:47:38;;;;;;;30.40;10.55;;;6.70;99.90;;;;;;4961844;28;20034;-81
2022/11/29 06:50:35;;;;;;;32.95;10.45;;;6.70;99.90;;;;;;4961272;28;20049;-81
2022/11/29 06:53:48;;;;;;;29.30;9.90;;;6.70;99.90;;;;;;4981571;28;20052;-82
2022/11/29 06:56:44;;;;;;;31.63;10.48;;;6.60;99.90;;;;;;4914078;29;20052;-81
2022/11/29 06:59:34;;;;;;;28.48;10.07;;;6.60;99.90;;;;;;4909881;29;20079;-81
2022/11/29 07:02:13;;;;;;;27.42;9.93;;;6.60;99.90;;;;;;4967701;28;20472;-81
2022/11/29 07:04:46;;;;;;;25.50;9.40;;;6.60;99.90;;;;;;4987447;28;20046;-82
2022/11/29 07:07:21;;;;;;;24.83;9.65;;;6.70;99.90;;;;;;4984313;28;20069;-82
2022/11/29 07:09:50;;;;;;;27.55;9.68;;;6.60;99.90;;;;;;4961269;28;20051;-82
2022/11/29 07:12:16;;;;;;;30.63;10.23;;;6.70;99.90;;;;;;4979597;28;20038;-82
2022/11/29 07:14:42;;;;;;;29.30;10.38;;;6.70;99.90;;;;;;4987732;28;20046;-82
2022/11/29 07:17:46;;;;;;;30.23;10.25;;;6.70;99.90;;;;;;4982243;28;20038;-82
2022/11/29 07:20:44;;;;;;;27.83;10.02;;;6.70;99.90;;;;;;4941324;28;20126;-81
2022/11/29 07:23:34;;;;;;;28.95;10.27;;;6.70;99.90;;;;;;4963124;28;20043;-83
2022/11/29 07:26:25;;;;;;;27.75;10.45;;;6.60;99.90;;;;;;4956643;28;20049;-82
2022/11/29 07:29:04;;;;;;;26.33;8.70;;;6.70;99.90;;;;;;4970234;28;20034;-79
2022/11/29 07:31:58;;;;;;;25.48;9.38;;;6.70;99.90;;;;;;4981073;28;20056;-78
2022/11/29 07:34:38;;;;;;;27.58;9.73;;;6.70;99.90;;;;;;4974579;28;20039;-78
2022/11/29 07:37:35;;;;;;;24.92;9.95;;;6.70;99.90;;;;;;4961972;28;20046;-79
2022/11/29 07:40:31;;;;;;;28.20;9.68;;;6.70;99.90;;;;;;4971529;28;20038;-78
2022/11/29 07:43:19;;;;;;;24.75;9.00;;;6.70;99.90;;;;;;4963434;28;20125;-79
2022/11/29 07:45:44;;;;;;;27.17;8.85;;;6.70;99.90;;;;;;4982404;28;20374;-79
2022/11/29 07:48:11;;;;;;;27.33;9.60;;;6.70;99.90;;;;;;4964287;28;20050;-80
2022/11/29 07:50:38;;;;;;;26.20;9.45;;;6.70;99.90;;;;;;4981483;28;20065;-78
2022/11/29 07:53:04;;;;;;;28.95;9.63;;;6.70;99.90;;;;;;4964770;28;20049;-79
2022/11/29 07:55:32;;;;;;;29.27;9.95;;;6.70;99.90;;;;;;4988060;28;20046;-80
2022/11/29 07:57:57;;;;;;;28.15;9.85;;;6.70;99.90;;;;;;4983740;28;20130;-79
2022/11/29 08:00:23;;;;;;;23.07;9.37;;;6.60;99.90;;;;;;4982904;28;20148;-79
2022/11/29 08:02:50;;;;;;;23.77;9.82;;;6.70;99.90;;;;;;4968285;28;20086;-79
2022/11/29 08:05:15;;;;;;;;;;;6.60;99.90;;;;;;4956883;28;20034;-79
2022/11/29 08:07:41;;;;;;;29.35;9.85;;;6.60;99.90;;;;;;4970950;28;20453;-79
2022/11/29 08:10:10;;;;;;;23.30;9.90;;;6.60;99.90;;;;;;4963265;28;20039;-79
2022/11/29 08:12:42;;;;;;;28.05;9.25;;;6.60;99.90;;;;;;4980018;28;20290;-79
2022/11/29 08:15:08;;;;;;;20.85;8.18;;;6.70;99.90;;;;;;4979633;28;20078;-79
2022/11/29 08:17:36;;;;;;;24.20;8.73;;;6.70;99.90;;;;;;4948112;28;20074;-79
2022/11/29 08:20:02;;;;;;;21.67;9.43;;;6.70;99.90;;;;;;4947563;28;20030;-79
2022/11/29 08:22:27;;;;;;;23.75;9.40;;;6.70;99.90;;;;;;4968444;28;20627;-78
2022/11/29 08:24:53;;;;;;;22.37;8.73;;;6.80;99.90;;;;;;4988280;28;20074;-78
2022/11/29 08:27:19;;;;;;;27.73;10.03;;;7.00;99.90;;;;;;4976051;28;20646;-79
2022/11/29 08:29:44;;;;;;;25.43;8.93;;;6.90;99.90;;;;;;4949553;28;20293;-79
2022/11/29 08:32:10;;;;;;;21.60;8.33;;;6.90;99.90;;;;;;4958490;28;20292;-79
2022/11/29 08:34:36;;;;;;;26.05;9.40;;;6.90;99.90;;;;;;4966507;28;20046;-79
2022/11/29 08:37:01;;;;;;;19.83;8.73;;;6.90;99.90;;;;;;4986256;28;20078;-80
2022/11/29 08:39:27;;;;;;;25.20;8.80;;;7.00;99.90;;;;;;4959366;28;20290;-80
2022/11/29 08:41:53;;;;;;;24.25;9.63;;;7.00;99.90;;;;;;4942775;28;20042;-78
2022/11/29 08:44:19;;;;;;;22.20;8.37;;;7.00;99.90;;;;;;4973121;28;20395;-77
2022/11/29 08:49:28;;;;;;;24.33;8.35;;;7.10;99.90;;;;;;4982855;28;20049;-79
2022/11/29 08:53:40;;;;;;;24.02;8.60;;;7.20;99.90;;;;;;4981196;28;20049;-78
2022/11/29 08:54:40;;;;;;;22.23;8.35;;;7.20;99.90;;;;;;4970582;28;20054;-78
2022/11/29 08:57:06;;;;;;;25.37;8.50;;;7.30;99.90;;;;;;4979425;28;20045;-79
2022/11/29 08:59:31;;;;;;;26.52;8.32;;;8.10;99.90;;;;;;4967533;28;20774;-80
2022/11/29 09:01:57;;;;;;;20.13;8.70;;;7.40;99.90;;;;;;4960005;28;20144;-78
2022/11/29 09:04:23;;;;;;;22.10;8.43;;;7.50;99.90;;;;;;4986441;28;20042;-79
2022/11/29 09:06:49;;;;;;;27.35;9.05;;;7.40;99.90;;;;;;4980189;28;20039;-79
2022/11/29 09:09:15;;;;;;;19.60;7.60;;;7.40;99.90;;;;;;4981746;28;20049;-79
2022/11/29 09:11:41;;;;;;;19.88;7.93;;;7.50;99.90;;;;;;4963176;28;20450;-78
2022/11/29 09:14:10;;;;;;;29.17;8.50;;;7.50;99.90;;;;;;4943585;28;20065;-78
2022/11/29 09:16:37;;;;;;;20.75;7.97;;;7.60;99.90;;;;;;4971581;28;20506;-78
2022/11/29 09:19:04;;;;;;;23.50;7.47;;;7.60;99.90;;;;;;4978024;28;20054;-79
2022/11/29 09:21:31;;;;;;;20.48;8.20;;;7.70;99.90;;;;;;4988275;28;20375;-79
2022/11/29 09:24:05;;;;;;;23.23;8.20;;;7.70;99.90;;;;;;4984890;28;20038;-78
2022/11/29 09:26:34;;;;;;;22.23;8.45;;;7.80;99.90;;;;;;4976878;28;20118;-78
2022/11/29 09:29:01;;;;;;;23.77;8.18;;;7.80;99.90;;;;;;4962912;28;20054;-78
2022/11/29 09:31:29;;;;;;;21.15;7.43;;;7.90;99.90;;;;;;4977820;28;20490;-78
2022/11/29 09:33:55;;;;;;;18.45;7.75;;;8.00;99.90;;;;;;4986069;28;20049;-77
2022/11/29 09:36:21;;;;;;;19.50;7.20;;;8.00;99.90;;;;;;4959972;28;20130;-79
2022/11/29 09:38:47;;;;;;;21.20;7.47;;;8.10;99.90;;;;;;4967869;28;20121;-78
2022/11/29 09:41:13;;;;;;;22.15;6.65;;;8.10;99.90;;;;;;4981156;28;20465;-78
2022/11/29 09:44:01;;;;;;;23.67;7.40;;;8.10;99.90;;;;;;4986826;28;21442;-77
2022/11/29 09:46:53;;;;;;;24.35;7.78;;;8.20;99.90;;;;;;4964304;28;20039;-77
2022/11/29 09:49:30;;;;;;;24.77;6.78;;;8.20;99.90;;;;;;4959068;28;20053;-78
2022/11/29 09:52:24;;;;;;;21.00;7.15;;;8.10;99.90;;;;;;4961805;28;20053;-79
2022/11/29 09:55:23;;;;;;;16.92;6.78;;;8.20;99.90;;;;;;4979887;28;20069;-80
2022/11/29 09:57:52;;;;;;;22.15;6.32;;;8.30;99.90;;;;;;4972876;28;20042;-79
2022/11/29 10:00:21;;;;;;;21.20;6.53;;;8.30;99.90;;;;;;4979249;28;20494;-78
2022/11/29 10:02:51;;;;;;;23.10;7.45;;;8.30;99.90;;;;;;4958810;28;20126;-79
2022/11/29 10:05:22;;;;;;;28.08;7.20;;;8.30;99.90;;;;;;4977312;28;20039;-80
2022/11/29 10:07:50;;;;;;;27.10;7.47;;;8.30;99.90;;;;;;4982199;28;20462;-80
2022/11/29 10:10:19;;;;;;;22.23;6.63;;;8.30;99.90;;;;;;4984593;28;20560;-79
2022/11/29 10:12:54;;;;;;;22.55;6.43;;;8.40;99.90;;;;;;4981902;28;20457;-78
2022/11/29 10:15:34;;;;;;;23.73;5.82;;;8.50;99.90;;;;;;4976008;28;20479;-79
2022/11/29 10:18:23;;;;;;;26.60;7.57;;;8.50;99.90;;;;;;4978118;28;20039;-79
2022/11/29 10:20:50;;;;;;;25.88;7.70;;;8.50;99.90;;;;;;4956123;28;20118;-78
2022/11/29 10:23:33;;;;;;;21.27;6.55;;;8.50;99.90;;;;;;4967814;28;20030;-78
2022/11/29 10:25:59;;;;;;;25.63;7.40;;;8.50;99.90;;;;;;4975059;28;20549;-78
2022/11/29 10:28:30;;;;;;;15.07;7.30;;;8.60;99.90;;;;;;4944548;28;20070;-78
2022/11/29 10:31:15;;;;;;;22.40;7.00;;;8.60;99.90;;;;;;4964005;28;20081;-78
2022/11/29 10:33:41;;;;;;;22.23;8.02;;;8.70;99.90;;;;;;4988687;28;20048;-78
2022/11/29 10:36:37;;;;;;;25.42;7.18;;;8.70;99.90;;;;;;4964418;28;20121;-79
2022/11/29 10:39:18;;;;;;;19.10;7.85;;;8.80;99.90;;;;;;4981005;28;20053;-78
2022/11/29 10:41:45;;;;;;;19.52;7.78;;;8.80;99.90;;;;;;4985225;28;20049;-79
2022/11/29 10:44:12;;;;;;;;;;;9.20;99.90;;;;;;4964816;28;20086;-79
2022/11/29 10:46:37;;;;;;;27.60;8.07;;;8.90;99.90;;;;;;4966230;28;20004;-78
2022/11/29 10:49:09;;;;;;;21.23;8.27;;;8.90;99.90;;;;;;4965248;28;20126;-78
2022/11/29 10:51:35;;;;;;;24.27;10.10;;;9.00;99.90;;;;;;4987873;28;20050;-77
2022/11/29 10:54:20;;;;;;;25.08;9.35;;;9.00;99.90;;;;;;4985796;28;20049;-79
2022/11/29 10:56:46;;;;;;;24.92;8.95;;;9.00;99.90;;;;;;4986468;28;20035;-79
2022/11/29 10:59:24;;;;;;;20.55;8.95;;;9.00;99.90;;;;;;4963047;28;20077;-79
2022/11/29 11:01:50;;;;;;;26.90;9.60;;;9.10;99.90;;;;;;4987076;28;20057;-79
2022/11/29 11:04:23;;;;;;;22.17;9.35;;;9.10;99.90;;;;;;4966327;28;20074;-80
2022/11/29 11:06:54;;;;;;;19.05;9.65;;;9.10;99.90;;;;;;4995622;28;20061;-79
2022/11/29 11:09:28;;;;;;;21.60;9.90;;;9.20;99.90;;;;;;4966658;28;20038;-79
2022/11/29 11:11:56;;;;;;;22.05;11.63;;;9.20;99.90;;;;;;4970255;28;20517;-78
2022/11/29 11:14:26;;;;;;;18.92;10.48;;;9.20;99.90;;;;;;4972285;28;20078;-78
2022/11/29 11:16:52;;;;;;;21.20;9.48;;;9.20;99.90;;;;;;4982925;28;20038;-79
2022/11/29 11:19:24;;;;;;;;;;;9.50;99.90;;;;;;4963572;28;20062;-78
2022/11/29 11:21:50;;;;;;;20.48;9.43;;;9.20;99.90;;;;;;4989718;28;19917;-79
2022/11/29 11:24:26;;;;;;;17.17;8.38;;;9.20;99.90;;;;;;4974756;28;20066;-79
2022/11/29 11:26:52;;;;;;;18.45;9.68;;;9.30;99.90;;;;;;4967995;28;20045;-79
2022/11/29 11:29:21;;;;;;;21.98;10.02;;;9.40;99.90;;;;;;4968040;28;20122;-79
2022/11/29 11:31:56;;;;;;;18.20;8.75;;;9.40;99.90;;;;;;4966476;28;20039;-78
2022/11/29 11:34:34;;;;;;;18.13;8.98;;;9.50;99.90;;;;;;4966566;28;20104;-77
2022/11/29 11:37:28;;;;;;;16.35;8.82;;;9.50;99.90;;;;;;4988703;28;20038;-78
2022/11/29 11:39:56;;;;;;;16.88;8.80;;;9.50;99.90;;;;;;4968522;28;20125;-78
2022/11/29 11:42:37;;;;;;;14.48;8.18;;;9.50;99.90;;;;;;4963625;28;20026;-77
2022/11/29 11:45:09;;;;;;;12.60;6.97;;;9.50;99.90;;;;;;4968589;28;20038;-77
2022/11/29 11:47:43;;;;;;;12.98;6.80;;;9.50;99.90;;;;;;4979345;28;20097;-77
2022/11/29 11:50:15;;;;;;;13.07;7.38;;;9.50;99.90;;;;;;4986207;28;20092;-78
2022/11/29 11:52:47;;;;;;;14.02;7.65;;;9.50;99.90;;;;;;4966269;28;20567;-78
2022/11/29 11:55:31;;;;;;;12.15;6.80;;;9.50;99.90;;;;;;4969349;28;20482;-78
2022/11/29 11:58:12;;;;;;;12.13;6.75;;;9.50;99.90;;;;;;4992301;28;20058;-79
2022/11/29 12:00:42;;;;;;;14.15;6.72;;;9.50;99.90;;;;;;4977454;28;20073;-77
2022/11/29 12:03:22;;;;;;;13.32;6.60;;;9.50;99.90;;;;;;4993309;28;20046;-79
2022/11/29 12:05:50;;;;;;;9.80;5.90;;;9.50;99.90;;;;;;4992353;28;20487;-77
2022/11/29 12:08:17;;;;;;;9.82;6.07;;;9.50;99.90;;;;;;4981064;28;20078;-78
2022/11/29 12:10:44;;;;;;;12.57;5.70;;;9.50;99.90;;;;;;4981743;28;20046;-78
2022/11/29 12:13:20;;;;;;;10.13;5.22;;;9.50;99.90;;;;;;4983164;28;20101;-77
2022/11/29 12:15:48;;;;;;;8.48;5.38;;;9.40;99.90;;;;;;4968153;28;20044;-78
2022/11/29 12:18:31;;;;;;;8.10;5.10;;;9.40;99.90;;;;;;4964005;28;20042;-78
2022/11/29 12:21:04;;;;;;;9.07;5.45;;;9.30;99.90;;;;;;4989472;28;20442;-78
2022/11/29 12:23:29;;;;;;;9.60;5.65;;;9.40;99.90;;;;;;4971107;28;20041;-78
2022/11/29 12:26:18;;;;;;;8.87;5.40;;;9.40;99.90;;;;;;4982978;28;20042;-78
2022/11/29 12:28:44;;;;;;;8.50;5.38;;;9.30;99.90;;;;;;4976831;28;20519;-78
2022/11/29 12:31:17;;;;;;;8.57;5.35;;;9.30;99.90;;;;;;4956595;28;20045;-79
2022/11/29 12:33:54;;;;;;;10.85;6.25;;;9.30;99.90;;;;;;4979724;28;20042;-78
2022/11/29 12:36:31;;;;;;;9.32;5.95;;;9.30;99.90;;;;;;4982689;28;20050;-78
2022/11/29 12:39:01;;;;;;;;;;;9.20;99.90;;;;;;4984429;28;20043;-78
2022/11/29 12:41:42;;;;;;;8.48;5.65;;;9.20;99.90;;;;;;4988521;28;19928;-78
2022/11/29 12:44:20;;;;;;;7.05;5.22;;;9.20;99.90;;;;;;4990134;28;20120;-78
2022/11/29 12:47:33;;;;;;;10.27;6.07;;;9.10;99.90;;;;;;4965498;28;20399;-78
2022/11/29 12:50:11;;;;;;;7.38;5.25;;;9.10;99.90;;;;;;4931287;28;20048;-78
2022/11/29 12:52:52;;;;;;;7.20;5.38;;;9.00;99.90;;;;;;4982896;28;20120;-78
2022/11/29 12:55:26;;;;;;;8.02;5.65;;;9.00;99.90;;;;;;4989469;28;20038;-78
2022/11/29 12:57:57;;;;;;;9.60;5.88;;;9.00;99.90;;;;;;4965945;28;20046;-78
2022/11/29 13:00:27;;;;;;;10.85;5.88;;;8.90;99.90;;;;;;4980842;28;20132;-77
2022/11/29 13:03:31;;;;;;;10.20;6.50;;;9.00;99.90;;;;;;4965645;28;20064;-78
2022/11/29 13:06:11;;;;;;;8.75;6.80;;;8.80;99.90;;;;;;4981532;28;20046;-78
2022/11/29 13:09:00;;;;;;;9.55;6.53;;;8.80;99.90;;;;;;4981196;28;20042;-77
2022/11/29 13:11:59;;;;;;;10.25;7.22;;;8.70;99.90;;;;;;4985472;28;20031;-78
2022/11/29 13:14:45;;;;;;;12.63;6.93;;;8.70;99.90;;;;;;4949545;28;20049;-78
2022/11/29 13:17:44;;;;;;;10.25;6.47;;;8.60;99.90;;;;;;4985813;28;20038;-78
2022/11/29 13:20:29;;;;;;;12.70;6.93;;;8.60;99.90;;;;;;4963202;28;20047;-77
2022/11/29 13:23:24;;;;;;;12.02;7.30;;;8.60;99.90;;;;;;4982927;28;20104;-78
2022/11/29 13:25:53;;;;;;;10.18;6.65;;;8.60;99.90;;;;;;4957838;28;20070;-78
2022/11/29 13:28:31;;;;;;;11.82;6.95;;;8.60;99.90;;;;;;4988480;28;20042;-79
2022/11/29 13:31:04;;;;;;;10.50;6.68;;;8.50;99.90;;;;;;4967814;28;20046;-78
2022/11/29 13:34:00;;;;;;;11.85;7.63;;;8.50;99.90;;;;;;4977800;28;20042;-78